SBPV/PVH METAR and TAF weather

Enter ICAO airport designator
Station Type Date Time Source
SBPV METAR 2020/09/20 07:00 UTC NOAA

SBPV 200700Z 00000KT 5000 FU NSC 25/24 Q1009


Station Type Date Time Source
SBPV Decoded METAR 2020/09/20 07:00 UTC NOAA

Porto Velho Aeroporto , Brazil (SBPV) 08-46S 063-55W 102M
Sep 20, 2020 - 03:00 AM EDT / 2020.09.20 0700 UTC
Wind: Calm:0
Visibility: 3 mile(s):0
Weather: smoke
Temperature: 77 F (25 C)
Dew Point: 75 F (24 C)
Relative Humidity: 94%
Pressure (altimeter): 29.80 in. Hg (1009 hPa)
ob: SBPV 200700Z 00000KT 5000 FU NSC 25/24 Q1009
cycle: 7

Station Type Date Time Source
SBPV TAF 2020/09/20 06:16 UTC NOAA

TAF SBPV 200300Z 2006/2106 18005KT 5000 FU FEW030 TN24/2010Z TX35/2017Z
BECMG 2010/2012 22005KT 3000 FU
BECMG 2015/2017 14005KT 5000 FU SCT030 FEW035TCU
BECMG 2100/2103 21005KT 3000 FU FEW030
RMK PHC

Example: see airport list